Time;durP1;ratioP1;P1;durP2;ratioP2;P2;SDS_P1;SDS_P2;PMS_P1;PMS_P2;Temp;Humidity;BMP_temperature;BMP_pressure;BME280_temperature;BME280_humidity;BME280_pressure;Samples;Min_cycle;Max_cycle;Signal;HPM_P1;HPM_P2
2023/06/21 00:03:57;;;;;;;;;;;17.60;99.90;;;;;;8309781;28;19917;-81
2023/06/21 00:07:58;;;;;;;;;;;17.90;99.90;;;;;;8312934;28;20151;-80
2023/06/21 00:11:59;;;;;;;;;;;17.70;99.90;;;;;;8307161;28;19917;-81
2023/06/21 00:15:59;;;;;;;;;;;17.90;99.90;;;;;;8294508;28;20389;-81
2023/06/21 00:20:00;;;;;;;;;;;17.50;99.90;;;;;;8308359;28;20122;-80
2023/06/21 00:24:02;;;;;;;;;;;17.60;99.90;;;;;;8326492;28;19979;-80
2023/06/21 00:28:03;;;;;;;;;;;17.70;99.90;;;;;;8345410;28;19913;-80
2023/06/21 00:32:03;;;;;;;;;;;17.60;99.90;;;;;;8304849;28;19909;-80
2023/06/21 00:36:04;;;;;;;;;;;17.40;99.90;;;;;;8310994;28;20286;-81
2023/06/21 00:40:12;;;;;;;;;;;17.10;99.90;;;;;;8287706;28;19909;-80
2023/06/21 00:44:12;;;;;;;;;;;17.30;99.90;;;;;;8308049;28;19920;-80
2023/06/21 00:48:13;;;;;;;;;;;17.20;99.90;;;;;;8327613;28;20001;-80
2023/06/21 00:52:13;;;;;;;;;;;17.10;99.90;;;;;;8295160;28;19913;-80
2023/06/21 00:56:16;;;;;;;;;;;17.30;99.90;;;;;;8299682;28;19917;-80
2023/06/21 01:00:21;;;;;;;;;;;17.10;99.90;;;;;;8309330;28;19909;-79
2023/06/21 01:04:22;;;;;;;;;;;17.10;99.90;;;;;;8320796;28;20206;-80
2023/06/21 01:08:39;;;;;;;;;;;17.30;99.90;;;;;;8299782;28;19987;-80
2023/06/21 01:12:53;;;;;;;;;;;17.20;99.90;;;;;;8300208;28;19959;-80
2023/06/21 01:16:55;;;;;;;;;;;17.00;99.90;;;;;;8303837;28;19921;-80
2023/06/21 01:20:57;;;;;;;;;;;16.90;99.90;;;;;;8353866;22;19925;-82
2023/06/21 01:25:21;;;;;;;;;;;16.80;99.90;;;;;;8281970;28;19979;-83
2023/06/21 01:29:26;;;;;;;;;;;16.70;99.90;;;;;;8258822;28;19937;-82
2023/06/21 01:33:27;;;;;;;;;;;16.60;99.90;;;;;;8310523;28;19963;-82
2023/06/21 01:37:28;;;;;;;;;;;16.80;99.90;;;;;;8297235;28;19975;-83
2023/06/21 01:41:59;;;;;;;;;;;16.60;99.90;;;;;;8275600;23;20022;-82
2023/06/21 01:50:50;;;;;;;;;;;16.70;99.90;;;;;;8147957;29;19998;-83
2023/06/21 01:54:50;;;;;;;;;;;17.00;99.90;;;;;;8385785;22;19925;-79
2023/06/21 01:58:51;;;;;;;;;;;16.30;99.90;;;;;;8314462;28;19948;-79
2023/06/21 02:15:20;;;;;;;;;;;16.40;99.90;;;;;;8393713;22;19924;-80
2023/06/21 02:19:22;;;;;;;;;;;16.50;99.90;;;;;;8357890;28;20232;-79
2023/06/21 02:23:29;;;;;;;;;;;15.70;99.90;;;;;;8350071;28;20095;-79
2023/06/21 02:27:38;;;;;;;;;;;16.60;99.90;;;;;;8347373;28;19917;-79
2023/06/21 02:32:07;;;;;;;;;;;16.70;99.90;;;;;;8343382;28;20010;-79
2023/06/21 02:36:53;;;;;;;;;;;16.00;99.90;;;;;;8348025;28;19916;-79
2023/06/21 02:40:57;;;;;;;;;;;16.40;99.90;;;;;;8339963;28;19988;-79
2023/06/21 02:45:00;;;;;;;;;;;16.30;99.90;;;;;;8349036;28;19908;-79
2023/06/21 02:49:04;;;;;;;;;;;17.20;99.90;;;;;;8345870;28;19912;-79
2023/06/21 02:53:07;;;;;;;;;;;17.10;99.90;;;;;;8340875;28;19981;-80
2023/06/21 02:57:20;;;;;;;;;;;16.50;99.90;;;;;;8340620;28;20083;-80
2023/06/21 03:01:38;;;;;;;;;;;16.10;99.90;;;;;;8331365;28;19967;-80
2023/06/21 03:05:38;;;;;;;;;;;16.10;99.90;;;;;;8341795;28;20067;-79
2023/06/21 03:10:08;;;;;;;;;;;15.80;99.90;;;;;;8339307;28;19917;-79
2023/06/21 03:14:08;;;;;;;;;;;15.70;99.90;;;;;;8346515;22;19929;-79
2023/06/21 03:18:20;;;;;;;;;;;15.00;99.90;;;;;;8274678;28;20024;-79
2023/06/21 03:22:24;;;;;;;;;;;15.60;99.90;;;;;;8286213;28;20016;-79
2023/06/21 03:26:27;;;;;;;;;;;15.50;99.90;;;;;;8275023;28;19917;-79
2023/06/21 03:30:28;;;;;;;;;;;15.70;99.90;;;;;;8342425;23;19937;-80
2023/06/21 03:34:29;;;;;;;;;;;15.60;99.90;;;;;;8286268;28;19917;-80
2023/06/21 03:38:29;;;;;;;;;;;15.50;99.90;;;;;;8277538;28;19937;-80
2023/06/21 03:42:30;;;;;;;;;;;15.40;99.90;;;;;;8288565;28;19967;-80
2023/06/21 03:46:30;;;;;;;;;;;15.40;99.90;;;;;;8311378;28;19959;-80
2023/06/21 03:50:31;;;;;;;;;;;15.90;99.90;;;;;;8308843;28;19974;-80
2023/06/21 03:54:32;;;;;;;;;;;16.40;99.90;;;;;;8303468;28;20217;-79
2023/06/21 03:58:32;;;;;;;;;;;15.70;99.90;;;;;;8293915;28;20296;-80
2023/06/21 04:02:33;;;;;;;;;;;15.80;99.90;;;;;;8286973;28;19925;-80
2023/06/21 04:06:33;;;;;;;;;;;16.20;99.90;;;;;;8280285;28;19921;-80
2023/06/21 04:10:34;;;;;;;;;;;16.30;99.90;;;;;;8284684;28;20274;-79
2023/06/21 04:14:34;;;;;;;;;;;17.70;99.90;;;;;;8286446;28;20001;-79
2023/06/21 04:18:35;;;;;;;;;;;17.10;99.90;;;;;;8293667;28;19991;-79
2023/06/21 04:22:36;;;;;;;;;;;17.40;99.90;;;;;;8290587;28;19913;-79
2023/06/21 04:26:36;;;;;;;;;;;17.20;99.90;;;;;;8297679;28;20123;-77
2023/06/21 04:30:37;;;;;;;;;;;17.20;99.90;;;;;;8307051;28;20341;-80
2023/06/21 04:34:37;;;;;;;;;;;17.20;99.90;;;;;;8284459;28;20606;-80
2023/06/21 04:38:37;;;;;;;;;;;17.90;99.90;;;;;;8302252;28;20495;-81
2023/06/21 04:42:38;;;;;;;;;;;17.70;99.90;;;;;;8297064;28;19959;-79
2023/06/21 04:46:38;;;;;;;;;;;18.00;99.90;;;;;;8288893;28;19925;-78
2023/06/21 04:50:39;;;;;;;;;;;18.60;99.90;;;;;;8290073;28;20004;-78
2023/06/21 04:54:39;;;;;;;;;;;19.40;99.90;;;;;;8312736;28;20176;-79
2023/06/21 04:58:40;;;;;;;;;;;20.00;99.90;;;;;;8285198;28;19913;-82
2023/06/21 05:02:40;;;;;;;;;;;20.70;99.90;;;;;;8312885;28;19914;-81
2023/06/21 05:06:41;;;;;;;;;;;22.50;99.90;;;;;;8316768;28;19917;-82
2023/06/21 05:10:42;;;;;;;;;;;22.80;99.90;;;;;;8318097;28;19977;-82
2023/06/21 05:14:42;;;;;;;;;;;22.70;99.90;;;;;;8339364;28;19916;-81
2023/06/21 05:18:43;;;;;;;;;;;22.60;99.90;;;;;;8326572;28;19909;-81
2023/06/21 05:22:43;;;;;;;;;;;22.90;99.90;;;;;;8340126;28;20087;-81
2023/06/21 05:26:44;;;;;;;;;;;23.20;99.90;;;;;;8318146;28;19919;-81
2023/06/21 05:30:44;;;;;;;;;;;23.40;99.90;;;;;;8307123;28;19929;-81
2023/06/21 05:34:45;;;;;;;;;;;23.40;99.90;;;;;;8317721;28;19913;-80
2023/06/21 05:38:48;;;;;;;;;;;24.10;99.90;;;;;;8331085;28;19993;-81
2023/06/21 05:42:48;;;;;;;;;;;24.60;99.90;;;;;;8314073;28;19921;-81
2023/06/21 05:46:49;;;;;;;;;;;25.00;99.90;;;;;;8304723;28;19952;-81
2023/06/21 05:50:50;;;;;;;;;;;25.30;99.90;;;;;;8318152;28;19976;-82
2023/06/21 05:54:50;;;;;;;;;;;25.70;99.90;;;;;;8322027;28;19901;-81
2023/06/21 05:58:51;;;;;;;;;;;26.30;99.90;;;;;;8323585;28;19957;-82
2023/06/21 06:02:51;;;;;;;;;;;26.40;99.90;;;;;;8318244;28;19922;-81
2023/06/21 06:06:52;;;;;;;;;;;26.60;99.90;;;;;;8304079;28;19937;-81
2023/06/21 06:10:52;;;;;;;;;;;27.10;99.90;;;;;;8300131;28;19973;-82
2023/06/21 06:14:55;;;;;;;;;;;26.80;99.90;;;;;;8301542;28;19954;-83
2023/06/21 06:18:56;;;;;;;;;;;27.10;99.90;;;;;;8314631;28;19913;-82
2023/06/21 06:22:56;;;;;;;;;;;27.80;99.90;;;;;;8303472;28;19944;-83
2023/06/21 06:26:57;;;;;;;;;;;28.10;99.90;;;;;;8330150;28;19920;-82
2023/06/21 06:30:58;;;;;;;;;;;28.40;99.90;;;;;;8312065;28;19948;-83
2023/06/21 06:34:58;;;;;;;;;;;28.80;99.90;;;;;;8300601;28;19906;-81
2023/06/21 06:39:00;;;;;;;;;;;28.80;99.90;;;;;;8324829;28;19917;-81
2023/06/21 06:43:00;;;;;;;;;;;28.90;99.90;;;;;;8288663;28;20012;-78
2023/06/21 06:47:01;;;;;;;;;;;28.90;99.90;;;;;;8290051;28;20447;-78
2023/06/21 06:51:01;;;;;;;;;;;29.10;99.90;;;;;;8309860;28;19913;-77
2023/06/21 06:55:03;;;;;;;;;;;29.10;99.90;;;;;;8310465;28;20093;-77
2023/06/21 06:59:04;;;;;;;;;;;29.20;99.90;;;;;;8317626;28;19940;-78
2023/06/21 07:03:04;;;;;;;;;;;29.20;99.90;;;;;;8292537;28;19996;-78
2023/06/21 07:07:05;;;;;;;;;;;29.10;99.90;;;;;;8290254;28;20651;-80
2023/06/21 07:11:05;;;;;;;;;;;29.60;99.90;;;;;;8280650;28;19977;-80
2023/06/21 07:15:06;;;;;;;;;;;30.00;99.90;;;;;;8287602;28;20569;-80
2023/06/21 07:19:07;;;;;;;;;;;30.40;99.90;;;;;;8301904;28;20092;-77
2023/06/21 07:23:07;;;;;;;;;;;30.20;99.90;;;;;;8271932;28;19918;-77
2023/06/21 07:27:07;;;;;;;;;;;29.90;99.90;;;;;;8279509;28;19952;-77
2023/06/21 07:31:08;;;;;;;;;;;30.40;99.90;;;;;;8286336;28;19918;-77
2023/06/21 07:35:08;;;;;;;;;;;30.30;99.90;;;;;;8269890;28;20374;-77
2023/06/21 07:39:09;;;;;;;;;;;30.60;99.90;;;;;;8293468;28;19996;-77
2023/06/21 07:43:09;;;;;;;;;;;30.80;99.90;;;;;;8300322;28;19917;-77
2023/06/21 07:47:10;;;;;;;;;;;30.20;99.90;;;;;;8282408;28;20430;-77
2023/06/21 07:51:10;;;;;;;;;;;29.30;99.90;;;;;;8278731;28;19959;-77
2023/06/21 07:55:11;;;;;;;;;;;29.00;99.90;;;;;;8277407;28;19909;-78
2023/06/21 07:59:12;;;;;;;;;;;29.50;99.90;;;;;;8288060;28;19924;-78
2023/06/21 08:03:12;;;;;;;;;;;30.40;99.90;;;;;;8291040;28;19913;-78
2023/06/21 08:07:14;;;;;;;;;;;31.20;99.90;;;;;;8297604;28;20460;-78
2023/06/21 08:11:14;;;;;;;;;;;32.10;99.90;;;;;;8314950;28;19947;-77
2023/06/21 08:15:14;;;;;;;;;;;31.00;99.90;;;;;;8301961;28;20629;-77
2023/06/21 08:19:15;;;;;;;;;;;30.80;99.90;;;;;;8301459;28;20296;-78
2023/06/21 08:23:15;;;;;;;;;;;32.00;99.90;;;;;;8270499;28;20284;-77
2023/06/21 08:27:16;;;;;;;;;;;32.60;99.90;;;;;;8281453;28;19967;-77
2023/06/21 08:31:16;;;;;;;;;;;31.50;99.90;;;;;;8283597;28;19917;-77
2023/06/21 08:35:17;;;;;;;;;;;31.50;99.90;;;;;;8283217;28;20123;-78
2023/06/21 08:39:17;;;;;;;;;;;31.50;99.90;;;;;;8283462;28;19921;-78
2023/06/21 08:43:18;;;;;;;;;;;31.60;99.90;;;;;;8283152;28;19921;-78
2023/06/21 08:47:20;;;;;;;;;;;31.40;99.90;;;;;;8283246;28;19924;-78
2023/06/21 08:51:21;;;;;;;;;;;30.60;99.90;;;;;;8280088;28;19917;-78
2023/06/21 08:55:23;;;;;;;;;;;29.30;99.90;;;;;;8281832;28;19976;-76
2023/06/21 08:59:30;;;;;;;;;;;27.00;99.90;;;;;;8272025;28;19924;-78
2023/06/21 09:03:45;;;;;;;;;;;21.90;99.90;;;;;;8274668;28;20487;-76
2023/06/21 09:07:46;;;;;;;;;;;19.90;99.90;;;;;;8264673;28;20198;-75
2023/06/21 09:11:47;;;;;;;;;;;19.20;99.90;;;;;;8273121;28;19955;-75
2023/06/21 09:15:50;;;;;;;;;;;18.70;99.90;;;;;;8274046;28;20173;-79
2023/06/21 09:19:50;;;;;;;;;;;17.60;99.90;;;;;;8280113;28;19925;-77
2023/06/21 09:23:51;;;;;;;;;;;17.70;99.90;;;;;;8288243;28;20383;-76
2023/06/21 09:31:56;;;;;;;;;;;17.20;99.90;;;;;;8404219;28;19924;-79
2023/06/21 09:35:59;;;;;;;;;;;17.20;99.90;;;;;;8400533;28;19924;-78
2023/06/21 09:40:00;;;;;;;;;;;17.90;99.90;;;;;;8389870;28;19912;-79
2023/06/21 09:44:12;;;;;;;;;;;16.90;99.90;;;;;;8382163;28;19912;-79
2023/06/21 09:48:16;;;;;;;;;;;17.00;99.90;;;;;;8367269;28;19921;-78
2023/06/21 09:52:21;;;;;;;;;;;17.10;99.90;;;;;;8384281;28;19923;-79
2023/06/21 09:56:22;;;;;;;;;;;17.00;99.90;;;;;;8381015;28;19959;-77
2023/06/21 10:00:23;;;;;;;;;;;17.40;99.90;;;;;;8393057;28;19916;-77
2023/06/21 10:04:24;;;;;;;;;;;18.00;99.90;;;;;;8390130;28;19944;-78
2023/06/21 10:08:26;;;;;;;;;;;17.80;99.90;;;;;;8411584;28;19927;-78
2023/06/21 10:12:27;;;;;;;;;;;18.00;99.90;;;;;;8392533;28;19998;-77
2023/06/21 10:16:27;;;;;;;;;;;18.50;99.90;;;;;;8398665;28;19928;-79
2023/06/21 10:20:28;;;;;;;;;;;18.90;99.90;;;;;;8400491;28;19916;-78
2023/06/21 10:24:32;;;;;;;;;;;19.30;99.90;;;;;;8381337;28;19921;-78
2023/06/21 10:28:37;;;;;;;;;;;19.60;99.90;;;;;;8378294;28;20178;-78
2023/06/21 10:32:38;;;;;;;;;;;20.60;99.90;;;;;;8376261;28;20074;-79
2023/06/21 10:36:40;;;;;;;;;;;21.80;99.90;;;;;;8381874;28;20289;-79
2023/06/21 10:40:41;;;;;;;;;;;22.50;99.90;;;;;;8393957;28;19916;-79
2023/06/21 10:44:42;;;;;;;;;;;23.70;99.90;;;;;;8400297;28;20009;-79
2023/06/21 10:48:43;;;;;;;;;;;24.40;99.90;;;;;;8389489;28;19919;-79
2023/06/21 10:52:45;;;;;;;;;;;24.30;99.90;;;;;;8394867;28;20106;-80
2023/06/21 10:56:45;;;;;;;;;;;24.90;99.90;;;;;;8371685;28;19912;-80
2023/06/21 11:00:47;;;;;;;;;;;25.60;99.90;;;;;;8405519;28;19959;-81
2023/06/21 11:05:06;;;;;;;;;;;25.70;99.90;;;;;;8400337;28;20139;-80
2023/06/21 11:09:09;;;;;;;;;;;26.30;99.90;;;;;;8372175;28;19916;-81
2023/06/21 11:13:10;;;;;;;;;;;27.40;99.90;;;;;;8381983;28;20319;-80
2023/06/21 11:17:12;;;;;;;;;;;28.20;99.90;;;;;;8387839;28;19939;-80
2023/06/21 11:21:12;;;;;;;;;;;28.50;99.90;;;;;;8364729;28;19908;-80
2023/06/21 11:25:16;;;;;;;;;;;28.60;99.90;;;;;;8395825;28;19989;-80
2023/06/21 11:29:17;;;;;;;;;;;27.80;99.90;;;;;;8414021;28;19943;-82
2023/06/21 11:33:18;;;;;;;;;;;28.20;99.90;;;;;;8405161;28;19908;-80
2023/06/21 11:37:41;;;;;;;;;;;28.60;99.90;;;;;;8398213;28;19912;-80
2023/06/21 11:41:45;;;;;;;;;;;28.80;99.90;;;;;;8392986;28;19911;-80
2023/06/21 11:45:54;;;;;;;;;;;29.40;99.90;;;;;;8413123;28;19911;-79
2023/06/21 11:49:58;;;;;;;;;;;30.20;99.90;;;;;;8389155;28;19920;-80
2023/06/21 11:53:59;;;;;;;;;;;31.00;99.90;;;;;;8385871;28;19912;-79
2023/06/21 11:57:59;;;;;;;;;;;32.10;99.90;;;;;;8381958;28;21028;-79
2023/06/21 12:02:22;;;;;;;;;;;33.40;99.90;;;;;;8394299;28;19929;-79
2023/06/21 12:06:23;;;;;;;;;;;32.70;99.90;;;;;;8389789;28;19912;-79
2023/06/21 12:10:23;;;;;;;;;;;33.80;99.90;;;;;;8403457;28;19924;-79
2023/06/21 12:14:25;;;;;;;;;;;33.20;99.90;;;;;;8407235;28;19916;-78
2023/06/21 12:18:26;;;;;;;;;;;31.90;99.90;;;;;;8388584;28;19927;-79
2023/06/21 12:22:27;;;;;;;;;;;32.90;99.90;;;;;;8388800;28;19912;-79
2023/06/21 12:26:27;;;;;;;;;;;33.60;99.90;;;;;;8409297;28;20399;-79
2023/06/21 12:30:28;;;;;;;;;;;33.60;99.90;;;;;;8373453;28;20294;-78
2023/06/21 12:34:28;;;;;;;;;;;33.10;99.90;;;;;;8400632;28;19920;-79
2023/06/21 12:38:29;;;;;;;;;;;34.00;99.90;;;;;;8366704;28;20312;-79
2023/06/21 12:42:30;;;;;;;;;;;34.70;99.90;;;;;;8361114;28;20440;-77
2023/06/21 12:46:40;;;;;;;;;;;33.60;99.90;;;;;;8368374;28;19939;-77
2023/06/21 12:50:42;;;;;;;;;;;33.20;99.90;;;;;;8379677;28;20001;-78
2023/06/21 12:54:53;;;;;;;;;;;34.80;99.90;;;;;;8399831;28;20372;-77
2023/06/21 12:58:54;;;;;;;;;;;33.70;99.80;;;;;;8398465;28;20126;-78
2023/06/21 13:02:56;;;;;;;;;;;32.00;99.90;;;;;;8384860;28;20201;-78
2023/06/21 13:06:57;;;;;;;;;;;31.20;99.90;;;;;;8382577;28;19924;-79
2023/06/21 13:10:58;;;;;;;;;;;32.40;99.90;;;;;;8379221;28;20300;-77
2023/06/21 13:15:00;;;;;;;;;;;34.60;98.40;;;;;;8399796;28;19920;-78
2023/06/21 13:19:00;;;;;;;;;;;35.40;96.60;;;;;;8399686;28;19939;-79
2023/06/21 13:23:01;;;;;;;;;;;34.40;96.40;;;;;;8378647;28;19909;-78
2023/06/21 13:27:02;;;;;;;;;;;34.30;98.20;;;;;;8383359;28;20435;-79
2023/06/21 13:31:02;;;;;;;;;;;35.80;95.10;;;;;;8379065;28;19916;-79
2023/06/21 13:35:03;;;;;;;;;;;35.00;95.50;;;;;;8382475;28;19938;-78
2023/06/21 13:39:03;;;;;;;;;;;34.20;95.10;;;;;;8402290;28;20145;-78
2023/06/21 13:43:04;;;;;;;;;;;35.40;96.10;;;;;;8399202;28;19916;-79
2023/06/21 13:47:04;;;;;;;;;;;36.20;93.60;;;;;;8396425;28;20077;-79
2023/06/21 13:51:05;;;;;;;;;;;36.70;91.60;;;;;;8387364;28;20013;-77
2023/06/21 13:55:08;;;;;;;;;;;35.80;92.60;;;;;;8401368;28;19955;-79
2023/06/21 13:59:08;;;;;;;;;;;35.60;93.90;;;;;;8382642;28;19924;-78
2023/06/21 14:03:09;;;;;;;;;;;35.80;91.20;;;;;;8402306;28;19955;-78
2023/06/21 14:07:10;;;;;;;;;;;35.30;92.10;;;;;;8402175;28;19917;-79
2023/06/21 14:11:10;;;;;;;;;;;37.10;91.50;;;;;;8386850;28;20019;-79
2023/06/21 14:15:11;;;;;;;;;;;37.60;88.10;;;;;;8381550;28;19913;-78
2023/06/21 14:19:11;;;;;;;;;;;35.70;92.40;;;;;;8383817;28;19939;-78
2023/06/21 14:23:12;;;;;;;;;;;35.30;92.10;;;;;;8380294;28;19916;-78
2023/06/21 14:27:12;;;;;;;;;;;34.60;93.60;;;;;;8390806;28;19923;-78
2023/06/21 14:31:13;;;;;;;;;;;36.60;92.10;;;;;;8391354;28;19962;-78
2023/06/21 14:35:13;;;;;;;;;;;35.70;91.10;;;;;;8391681;28;19920;-78
2023/06/21 14:39:14;;;;;;;;;;;35.20;92.10;;;;;;8403781;28;19916;-77
2023/06/21 14:43:14;;;;;;;;;;;35.10;93.20;;;;;;8382140;28;20319;-79
2023/06/21 14:47:14;;;;;;;;;;;35.50;91.50;;;;;;8377690;28;19912;-78
2023/06/21 14:51:16;;;;;;;;;;;35.80;92.00;;;;;;8376070;28;20198;-78
2023/06/21 14:55:16;;;;;;;;;;;34.70;94.40;;;;;;8398689;28;20003;-77
2023/06/21 14:59:17;;;;;;;;;;;34.60;93.70;;;;;;8375097;28;19927;-78
2023/06/21 15:03:17;;;;;;;;;;;34.60;94.20;;;;;;8404391;28;19919;-78
2023/06/21 15:07:18;;;;;;;;;;;36.10;93.30;;;;;;8394830;28;20261;-78
2023/06/21 15:11:19;;;;;;;;;;;36.00;90.50;;;;;;8396137;28;19915;-79
2023/06/21 15:15:20;;;;;;;;;;;34.30;93.30;;;;;;8392152;28;20147;-78
2023/06/21 15:19:21;;;;;;;;;;;35.20;91.40;;;;;;8374665;28;19990;-78
2023/06/21 15:23:21;;;;;;;;;;;34.60;91.50;;;;;;8379725;28;19912;-78
2023/06/21 15:27:22;;;;;;;;;;;34.00;93.70;;;;;;8396996;28;19912;-78
2023/06/21 15:35:25;;;;;;;;;;;30.00;97.50;;;;;;8376029;28;20569;-77
2023/06/21 15:39:26;;;;;;;;;;;29.80;99.90;;;;;;8360249;28;19908;-77
2023/06/21 15:43:26;;;;;;;;;;;29.70;99.90;;;;;;8341351;28;20004;-78
2023/06/21 15:47:27;;;;;;;;;;;29.30;99.90;;;;;;8341127;28;19916;-78
2023/06/21 15:51:27;;;;;;;;;;;29.30;99.90;;;;;;8345558;28;19917;-78
2023/06/21 15:55:28;;;;;;;;;;;29.50;99.90;;;;;;8331764;28;19925;-79
2023/06/21 15:59:28;;;;;;;;;;;29.80;99.90;;;;;;8334747;28;19920;-78
2023/06/21 16:03:29;;;;;;;;;;;29.60;99.90;;;;;;8344738;28;19913;-78
2023/06/21 16:07:29;;;;;;;;;;;29.20;99.90;;;;;;8345153;28;19959;-77
2023/06/21 16:11:30;;;;;;;;;;;29.00;99.90;;;;;;8346247;28;19920;-77
2023/06/21 16:15:31;;;;;;;;;;;28.90;99.90;;;;;;8320489;28;19912;-78
2023/06/21 16:19:31;;;;;;;;;;;29.50;99.90;;;;;;8327374;28;19939;-77
2023/06/21 16:23:32;;;;;;;;;;;29.60;99.90;;;;;;8350291;28;19913;-78
2023/06/21 16:27:32;;;;;;;;;;;29.50;99.90;;;;;;8331024;28;20000;-77
2023/06/21 16:31:37;;;;;;;;;;;29.00;99.90;;;;;;8349515;28;19932;-77
2023/06/21 16:35:40;;;;;;;;;;;28.50;99.90;;;;;;8349057;28;19927;-77
2023/06/21 16:39:40;;;;;;;;;;;27.90;99.90;;;;;;8346180;28;20937;-76
2023/06/21 16:43:41;;;;;;;;;;;27.50;99.90;;;;;;8326975;28;20024;-77
2023/06/21 16:47:42;;;;;;;;;;;26.90;99.90;;;;;;8336997;28;19916;-77
2023/06/21 16:51:42;;;;;;;;;;;26.60;99.90;;;;;;8349104;28;20003;-77
2023/06/21 16:55:43;;;;;;;;;;;26.30;99.90;;;;;;8349115;28;20046;-77
2023/06/21 16:59:44;;;;;;;;;;;26.20;99.90;;;;;;8349253;28;19912;-77
2023/06/21 17:03:44;;;;;;;;;;;26.00;99.90;;;;;;8331568;28;19913;-76
2023/06/21 17:07:45;;;;;;;;;;;26.40;99.90;;;;;;8332086;28;20546;-77
2023/06/21 17:11:45;;;;;;;;;;;26.50;99.90;;;;;;8330612;28;19927;-77
2023/06/21 17:15:46;;;;;;;;;;;26.10;99.90;;;;;;8327001;28;19913;-78
2023/06/21 17:19:46;;;;;;;;;;;25.90;99.90;;;;;;8347263;28;19913;-76
2023/06/21 17:23:47;;;;;;;;;;;25.70;99.90;;;;;;8339713;28;19959;-76
2023/06/21 17:27:47;;;;;;;;;;;25.80;99.90;;;;;;8331033;28;19924;-77
2023/06/21 17:31:48;;;;;;;;;;;25.90;99.90;;;;;;8330009;28;19954;-77
2023/06/21 17:35:49;;;;;;;;;;;25.70;99.90;;;;;;8330271;28;19913;-76
2023/06/21 17:39:49;;;;;;;;;;;25.60;99.90;;;;;;8347437;28;19917;-77
2023/06/21 17:43:50;;;;;;;;;;;25.30;99.90;;;;;;8337008;28;19920;-77
2023/06/21 17:47:50;;;;;;;;;;;25.40;99.90;;;;;;8327214;28;19919;-77
2023/06/21 17:51:50;;;;;;;;;;;25.40;99.90;;;;;;8345193;28;19958;-77
2023/06/21 17:55:51;;;;;;;;;;;25.30;99.90;;;;;;8317118;28;19983;-78
2023/06/21 17:59:51;;;;;;;;;;;25.00;99.90;;;;;;8341833;28;19917;-77
2023/06/21 18:03:52;;;;;;;;;;;24.70;99.90;;;;;;8328262;28;20332;-77
2023/06/21 18:07:52;;;;;;;;;;;24.50;99.90;;;;;;8347000;28;19913;-78
2023/06/21 18:11:53;;;;;;;;;;;24.30;99.90;;;;;;8329078;28;20183;-77
2023/06/21 18:15:53;;;;;;;;;;;24.40;99.90;;;;;;8327429;28;19977;-77
2023/06/21 18:19:53;;;;;;;;;;;24.90;99.90;;;;;;8346369;28;19913;-77
2023/06/21 18:23:54;;;;;;;;;;;25.40;99.90;;;;;;8344730;28;19924;-77
2023/06/21 18:27:54;;;;;;;;;;;25.40;99.90;;;;;;8326817;28;20531;-78
2023/06/21 18:31:55;;;;;;;;;;;25.30;99.90;;;;;;8345644;28;19927;-77
2023/06/21 18:35:55;;;;;;;;;;;25.00;99.90;;;;;;8325479;28;19920;-78
2023/06/21 18:39:56;;;;;;;;;;;24.70;99.90;;;;;;8326406;28;19916;-78
2023/06/21 18:43:56;;;;;;;;;;;24.70;99.90;;;;;;8324029;28;20659;-77
2023/06/21 18:47:57;;;;;;;;;;;24.10;99.90;;;;;;8326365;28;20458;-77
2023/06/21 18:51:57;;;;;;;;;;;24.00;99.90;;;;;;8325205;28;19921;-77
2023/06/21 18:55:58;;;;;;;;;;;23.90;99.90;;;;;;8343839;28;20034;-77
2023/06/21 18:59:58;;;;;;;;;;;23.40;99.90;;;;;;8318634;28;20546;-77
2023/06/21 19:04:00;;;;;;;;;;;23.30;99.90;;;;;;8319195;28;20578;-78
2023/06/21 19:08:00;;;;;;;;;;;22.80;99.90;;;;;;8339862;28;19916;-77
2023/06/21 19:12:01;;;;;;;;;;;22.30;99.90;;;;;;8325051;28;20650;-77
2023/06/21 19:16:01;;;;;;;;;;;22.40;99.90;;;;;;8337387;28;20589;-77
2023/06/21 19:20:02;;;;;;;;;;;22.30;99.90;;;;;;8322724;28;20320;-77
2023/06/21 19:24:03;;;;;;;;;;;22.00;99.90;;;;;;8339862;28;19913;-77
2023/06/21 19:28:04;;;;;;;;;;;22.10;99.90;;;;;;8340065;28;20016;-76
2023/06/21 19:32:04;;;;;;;;;;;22.20;99.90;;;;;;8325649;28;20329;-77
2023/06/21 19:36:05;;;;;;;;;;;21.50;99.90;;;;;;8341510;28;19917;-77
2023/06/21 19:40:06;;;;;;;;;;;21.50;99.90;;;;;;8324417;28;19975;-77
2023/06/21 19:44:06;;;;;;;;;;;21.20;99.90;;;;;;8341422;28;19917;-77
2023/06/21 19:48:07;;;;;;;;;;;22.20;99.90;;;;;;8338483;28;20130;-77
2023/06/21 19:52:08;;;;;;;;;;;21.90;99.90;;;;;;8316548;28;19924;-78
2023/06/21 19:56:08;;;;;;;;;;;21.80;99.90;;;;;;8334976;28;19912;-81
2023/06/21 20:00:10;;;;;;;;;;;21.80;99.90;;;;;;8338441;28;20007;-81
2023/06/21 20:04:10;;;;;;;;;;;21.90;99.90;;;;;;8329030;28;19956;-80
2023/06/21 20:08:11;;;;;;;;;;;21.60;99.90;;;;;;8359112;28;19921;-81
2023/06/21 20:12:11;;;;;;;;;;;22.00;99.90;;;;;;8346153;28;20488;-82
2023/06/21 20:16:12;;;;;;;;;;;21.40;99.90;;;;;;8336285;28;19913;-81
2023/06/21 20:20:12;;;;;;;;;;;20.80;99.90;;;;;;8336028;28;19921;-81
2023/06/21 20:24:13;;;;;;;;;;;20.80;99.90;;;;;;8333466;28;19920;-82
2023/06/21 20:28:17;;;;;;;;;;;21.30;99.90;;;;;;8334993;28;19912;-81
2023/06/21 20:32:17;;;;;;;;;;;20.80;99.90;;;;;;8338255;28;19923;-80
2023/06/21 20:36:21;;;;;;;;;;;21.00;99.90;;;;;;8331528;28;19913;-82
2023/06/21 20:40:21;;;;;;;;;;;20.50;99.90;;;;;;8341018;28;20326;-81
2023/06/21 20:44:22;;;;;;;;;;;20.60;99.90;;;;;;8348217;28;19908;-82
2023/06/21 20:48:24;;;;;;;;;;;20.40;99.90;;;;;;8333708;28;19920;-82
2023/06/21 20:52:24;;;;;;;;;;;20.60;99.90;;;;;;8357177;28;19912;-82
2023/06/21 20:56:25;;;;;;;;;;;20.60;99.90;;;;;;8350347;28;20801;-82
2023/06/21 21:00:26;;;;;;;;;;;20.40;99.90;;;;;;8333358;28;20234;-81
2023/06/21 21:04:26;;;;;;;;;;;20.40;99.90;;;;;;8344199;28;20510;-82
2023/06/21 21:08:27;;;;;;;;;;;20.60;99.90;;;;;;8352406;28;20313;-82
2023/06/21 21:12:27;;;;;;;;;;;21.00;99.90;;;;;;8343223;28;20494;-82
2023/06/21 21:16:28;;;;;;;;;;;21.50;99.90;;;;;;8341617;28;19970;-81
2023/06/21 21:20:28;;;;;;;;;;;21.40;99.90;;;;;;8330728;28;19909;-81
2023/06/21 21:24:29;;;;;;;;;;;21.20;99.90;;;;;;8332846;28;19913;-82
2023/06/21 21:28:29;;;;;;;;;;;20.60;99.90;;;;;;8334207;28;19921;-81
2023/06/21 21:32:30;;;;;;;;;;;21.00;99.90;;;;;;8338823;28;20011;-82
2023/06/21 21:36:30;;;;;;;;;;;20.70;99.90;;;;;;8343618;28;19915;-82
2023/06/21 21:40:31;;;;;;;;;;;20.10;99.90;;;;;;8330701;28;19913;-81
2023/06/21 21:44:31;;;;;;;;;;;20.80;99.90;;;;;;8328756;28;19913;-80
2023/06/21 21:48:31;;;;;;;;;;;20.60;99.90;;;;;;8360756;28;19920;-81
2023/06/21 21:52:32;;;;;;;;;;;20.70;99.90;;;;;;8359362;28;19955;-82
2023/06/21 21:56:32;;;;;;;;;;;20.10;99.90;;;;;;8356667;28;19913;-81
2023/06/21 22:00:33;;;;;;;;;;;20.10;99.90;;;;;;8363576;28;19919;-82
2023/06/21 22:04:34;;;;;;;;;;;19.80;99.90;;;;;;8330203;28;19994;-81
2023/06/21 22:08:35;;;;;;;;;;;20.10;99.90;;;;;;8325518;28;19917;-83
2023/06/21 22:12:38;;;;;;;;;;;20.10;99.90;;;;;;8332488;28;20715;-81
2023/06/21 22:16:39;;;;;;;;;;;20.50;99.90;;;;;;8355673;28;19912;-82
2023/06/21 22:20:39;;;;;;;;;;;19.90;99.90;;;;;;8349176;28;19909;-80
2023/06/21 22:24:40;;;;;;;;;;;20.40;99.90;;;;;;8339938;28;19912;-82
2023/06/21 22:28:40;;;;;;;;;;;20.10;99.90;;;;;;8348714;28;20392;-79
2023/06/21 22:32:42;;;;;;;;;;;20.10;99.90;;;;;;8331321;28;21574;-81
2023/06/21 22:36:43;;;;;;;;;;;20.80;99.90;;;;;;8330146;28;19913;-81
2023/06/21 22:40:44;;;;;;;;;;;20.20;99.90;;;;;;8341322;28;19909;-80
2023/06/21 22:44:44;;;;;;;;;;;20.40;99.90;;;;;;8356699;28;20413;-82
2023/06/21 22:48:45;;;;;;;;;;;20.10;99.90;;;;;;8338618;28;19916;-81
2023/06/21 22:52:47;;;;;;;;;;;20.20;99.90;;;;;;8330230;28;19924;-81
2023/06/21 22:56:48;;;;;;;;;;;20.20;99.90;;;;;;8350784;28;19913;-81
2023/06/21 23:00:48;;;;;;;;;;;19.60;99.90;;;;;;8336889;28;20160;-80
2023/06/21 23:04:49;;;;;;;;;;;19.30;99.90;;;;;;8347882;28;20775;-80
2023/06/21 23:08:49;;;;;;;;;;;19.00;99.90;;;;;;8333922;28;20408;-80
2023/06/21 23:12:49;;;;;;;;;;;19.40;99.90;;;;;;8333787;28;20277;-81
2023/06/21 23:16:50;;;;;;;;;;;18.70;99.90;;;;;;8349902;28;19924;-82
2023/06/21 23:20:50;;;;;;;;;;;19.00;99.90;;;;;;8357714;28;20263;-81
2023/06/21 23:24:51;;;;;;;;;;;19.20;99.90;;;;;;8328883;28;20222;-80
2023/06/21 23:28:52;;;;;;;;;;;19.00;99.90;;;;;;8327647;28;20406;-80
2023/06/21 23:32:52;;;;;;;;;;;19.20;99.90;;;;;;8354294;28;20366;-81
2023/06/21 23:36:54;;;;;;;;;;;19.60;99.90;;;;;;8332386;28;19909;-80
2023/06/21 23:40:54;;;;;;;;;;;19.10;99.90;;;;;;8326063;28;19936;-81
2023/06/21 23:44:55;;;;;;;;;;;19.10;99.90;;;;;;8327591;28;20620;-81
2023/06/21 23:48:57;;;;;;;;;;;18.70;99.90;;;;;;8336404;28;19917;-80
2023/06/21 23:52:57;;;;;;;;;;;18.50;99.90;;;;;;8336552;28;19915;-81